Time;durP1;ratioP1;P1;durP2;ratioP2;P2;SDS_P1;SDS_P2;PMS_P1;PMS_P2;Temp;Humidity;BMP_temperature;BMP_pressure;BME280_temperature;BME280_humidity;BME280_pressure;Samples;Min_cycle;Max_cycle;Signal;HPM_P1;HPM_P2
2024/03/09 00:00:10;;;;;;;14.25;11.27;;;;;;;;;;489226;28;1392;-73
2024/03/09 00:00:27;;;;;;;14.80;11.50;;;;;;;;;;489129;28;1102;-73
2024/03/09 00:00:43;;;;;;;15.10;11.45;;;;;;;;;;486325;28;1618;-73
2024/03/09 00:00:58;;;;;;;15.90;11.25;;;;;;;;;;486873;28;1073;-73
2024/03/09 00:01:14;;;;;;;15.63;11.47;;;;;;;;;;487404;28;1224;-73
2024/03/09 00:01:34;;;;;;;13.95;11.20;;;;;;;;;;489322;28;1133;-73
2024/03/09 00:01:50;;;;;;;14.60;11.10;;;;;;;;;;487518;28;1123;-73
2024/03/09 00:02:05;;;;;;;14.55;11.25;;;;;;;;;;487265;28;1323;-73
2024/03/09 00:02:21;;;;;;;16.00;11.77;;;;;;;;;;489927;28;1316;-74
2024/03/09 00:02:37;;;;;;;16.55;12.02;;;;;;;;;;487956;28;1054;-73
2024/03/09 00:02:54;;;;;;;15.07;11.85;;;;;;;;;;487099;28;994;-73
2024/03/09 00:03:11;;;;;;;15.32;11.68;;;;;;;;;;488633;28;1317;-73
2024/03/09 00:03:27;;;;;;;13.82;11.38;;;;;;;;;;493374;28;1063;-73
2024/03/09 00:03:43;;;;;;;14.18;11.73;;;;;;;;;;489657;28;1133;-73
2024/03/09 00:04:01;;;;;;;15.90;11.98;;;;;;;;;;486774;28;1352;-74
2024/03/09 00:04:16;;;;;;;16.55;12.07;;;;;;;;;;487250;28;1072;-73
2024/03/09 00:04:32;;;;;;;16.70;12.47;;;;;;;;;;487101;28;1136;-73
2024/03/09 00:04:47;;;;;;;16.55;12.80;;;;;;;;;;484074;28;1278;-73
2024/03/09 00:05:06;;;;;;;16.50;12.77;;;;;;;;;;485389;28;906;-73
2024/03/09 00:05:26;;;;;;;17.40;13.05;;;;;;;;;;489569;28;1302;-73
2024/03/09 00:05:43;;;;;;;16.42;13.00;;;;;;;;;;488328;28;1049;-73
2024/03/09 00:05:59;;;;;;;16.33;13.00;;;;;;;;;;489221;28;969;-73
2024/03/09 00:06:15;;;;;;;17.25;13.30;;;;;;;;;;486978;28;1273;-73
2024/03/09 00:06:32;;;;;;;18.35;13.55;;;;;;;;;;488053;28;1051;-73
2024/03/09 00:06:48;;;;;;;17.17;12.90;;;;;;;;;;487597;28;1283;-73
2024/03/09 00:07:03;;;;;;;16.77;12.88;;;;;;;;;;487456;28;1270;-73
2024/03/09 00:07:18;;;;;;;17.07;12.80;;;;;;;;;;488763;28;1327;-73
2024/03/09 00:07:36;;;;;;;16.50;12.55;;;;;;;;;;488454;28;1037;-73
2024/03/09 00:07:57;;;;;;;16.08;12.75;;;;;;;;;;487585;28;1145;-73
2024/03/09 00:08:17;;;;;;;16.50;13.10;;;;;;;;;;488257;28;1184;-73
2024/03/09 00:08:34;;;;;;;17.98;13.57;;;;;;;;;;492607;28;1354;-73
2024/03/09 00:08:50;;;;;;;17.52;13.25;;;;;;;;;;489053;28;1625;-73
2024/03/09 00:09:06;;;;;;;16.52;13.32;;;;;;;;;;488198;28;1254;-73
2024/03/09 00:09:22;;;;;;;16.10;13.15;;;;;;;;;;493319;28;976;-73
2024/03/09 00:09:37;;;;;;;16.27;13.05;;;;;;;;;;488241;28;1425;-72
2024/03/09 00:09:53;;;;;;;17.40;13.13;;;;;;;;;;486472;28;1234;-73
2024/03/09 00:10:11;;;;;;;18.23;13.47;;;;;;;;;;486837;28;1187;-73
2024/03/09 00:10:29;;;;;;;17.48;13.48;;;;;;;;;;488868;28;1486;-73
2024/03/09 00:10:49;;;;;;;16.65;13.38;;;;;;;;;;486211;28;1356;-73
2024/03/09 00:11:06;;;;;;;16.58;13.43;;;;;;;;;;487908;28;1270;-73
2024/03/09 00:11:25;;;;;;;17.23;13.32;;;;;;;;;;491785;28;1357;-73
2024/03/09 00:11:40;;;;;;;17.00;13.43;;;;;;;;;;490884;28;1452;-72
2024/03/09 00:11:56;;;;;;;16.58;13.20;;;;;;;;;;488222;28;1242;-73
2024/03/09 00:12:14;;;;;;;17.47;13.23;;;;;;;;;;488559;28;1032;-73
2024/03/09 00:12:30;;;;;;;18.20;13.38;;;;;;;;;;493754;28;1252;-72
2024/03/09 00:12:48;;;;;;;17.57;12.97;;;;;;;;;;488668;28;1949;-73
2024/03/09 00:13:04;;;;;;;17.45;12.93;;;;;;;;;;489604;28;1338;-73
2024/03/09 00:13:20;;;;;;;18.83;13.50;;;;;;;;;;491263;28;1328;-73
2024/03/09 00:13:35;;;;;;;18.73;13.63;;;;;;;;;;488911;28;1215;-73
2024/03/09 00:13:51;;;;;;;17.77;13.38;;;;;;;;;;489615;28;1097;-73
2024/03/09 00:14:06;;;;;;;17.30;13.40;;;;;;;;;;487768;28;1202;-73
2024/03/09 00:14:22;;;;;;;17.02;13.07;;;;;;;;;;488702;28;1203;-73
2024/03/09 00:14:38;;;;;;;17.30;13.10;;;;;;;;;;487252;28;1139;-73
2024/03/09 00:14:53;;;;;;;18.27;13.55;;;;;;;;;;486659;28;1480;-73
2024/03/09 00:15:12;;;;;;;18.00;13.35;;;;;;;;;;488274;28;1302;-73
2024/03/09 00:15:28;;;;;;;16.80;13.25;;;;;;;;;;489482;28;1271;-72
2024/03/09 00:15:45;;;;;;;17.05;13.45;;;;;;;;;;487282;28;1380;-73
2024/03/09 00:16:00;;;;;;;18.08;13.70;;;;;;;;;;486626;28;961;-73
2024/03/09 00:16:16;;;;;;;19.10;13.73;;;;;;;;;;485983;28;1324;-73
2024/03/09 00:16:31;;;;;;;17.90;13.33;;;;;;;;;;488304;28;894;-73
2024/03/09 00:16:47;;;;;;;16.77;13.30;;;;;;;;;;485349;28;1326;-73
2024/03/09 00:17:03;;;;;;;17.25;13.50;;;;;;;;;;487783;28;1116;-73
2024/03/09 00:17:18;;;;;;;17.37;13.30;;;;;;;;;;490513;28;963;-73
2024/03/09 00:17:34;;;;;;;16.75;12.73;;;;;;;;;;491071;28;1014;-74
2024/03/09 00:17:55;;;;;;;17.27;12.60;;;;;;;;;;490509;28;1677;-73
2024/03/09 00:18:11;;;;;;;17.02;13.43;;;;;;;;;;489645;28;1426;-73
2024/03/09 00:18:27;;;;;;;17.17;13.63;;;;;;;;;;491154;28;1369;-73
2024/03/09 00:18:43;;;;;;;17.70;13.20;;;;;;;;;;488563;28;1307;-73
2024/03/09 00:19:03;;;;;;;17.20;12.90;;;;;;;;;;488585;28;1184;-74
2024/03/09 00:19:20;;;;;;;17.48;13.48;;;;;;;;;;491192;28;1135;-73
2024/03/09 00:19:36;;;;;;;17.73;13.45;;;;;;;;;;488552;28;1247;-74
2024/03/09 00:19:51;;;;;;;18.20;13.55;;;;;;;;;;488799;28;1239;-73
2024/03/09 00:20:15;;;;;;;18.03;13.23;;;;;;;;;;486385;28;1447;-73
2024/03/09 00:20:36;;;;;;;15.88;12.65;;;;;;;;;;491629;28;1127;-73
2024/03/09 00:20:53;;;;;;;15.73;12.60;;;;;;;;;;486464;28;1844;-73
2024/03/09 00:21:08;;;;;;;17.17;12.98;;;;;;;;;;485872;28;1022;-73
2024/03/09 00:21:24;;;;;;;18.38;13.45;;;;;;;;;;489632;28;1282;-73
2024/03/09 00:21:40;;;;;;;17.97;13.27;;;;;;;;;;487089;28;1208;-73
2024/03/09 00:21:56;;;;;;;17.10;13.18;;;;;;;;;;486624;28;1254;-73
2024/03/09 00:22:11;;;;;;;17.45;13.43;;;;;;;;;;485959;28;1375;-73
2024/03/09 00:22:28;;;;;;;17.20;13.40;;;;;;;;;;491930;28;1203;-73
2024/03/09 00:22:43;;;;;;;16.42;13.38;;;;;;;;;;485786;28;1333;-73
2024/03/09 00:22:59;;;;;;;17.40;13.63;;;;;;;;;;484394;28;1255;-73
2024/03/09 00:23:14;;;;;;;17.95;13.57;;;;;;;;;;484658;28;1177;-73
2024/03/09 00:23:30;;;;;;;17.20;13.03;;;;;;;;;;488202;28;927;-73
2024/03/09 00:23:50;;;;;;;16.90;12.82;;;;;;;;;;484333;28;1308;-73
2024/03/09 00:24:06;;;;;;;17.13;12.93;;;;;;;;;;486070;28;1333;-73
2024/03/09 00:24:21;;;;;;;17.10;12.85;;;;;;;;;;489505;28;1092;-73
2024/03/09 00:24:37;;;;;;;17.43;13.10;;;;;;;;;;485487;28;1060;-73
2024/03/09 00:24:55;;;;;;;16.77;13.00;;;;;;;;;;483411;28;1374;-73
2024/03/09 00:25:12;;;;;;;16.73;13.02;;;;;;;;;;485873;28;1409;-73
2024/03/09 00:25:31;;;;;;;17.75;13.20;;;;;;;;;;489164;28;1263;-73
2024/03/09 00:25:47;;;;;;;18.05;13.00;;;;;;;;;;485131;28;1298;-73
2024/03/09 00:26:05;;;;;;;17.33;12.77;;;;;;;;;;485990;28;1019;-72
2024/03/09 00:26:21;;;;;;;17.95;13.38;;;;;;;;;;488972;28;1297;-73
2024/03/09 00:26:36;;;;;;;18.13;13.50;;;;;;;;;;488803;28;1391;-73
2024/03/09 00:26:51;;;;;;;17.87;13.10;;;;;;;;;;489185;28;1311;-73
2024/03/09 00:27:08;;;;;;;16.75;12.57;;;;;;;;;;486854;28;1254;-73
2024/03/09 00:27:26;;;;;;;15.32;12.32;;;;;;;;;;491491;28;1625;-73
2024/03/09 00:27:42;;;;;;;15.73;12.80;;;;;;;;;;488065;28;1306;-73
2024/03/09 00:27:58;;;;;;;17.15;12.70;;;;;;;;;;487300;28;1243;-72
2024/03/09 00:28:14;;;;;;;16.98;12.57;;;;;;;;;;486684;28;1000;-73
2024/03/09 00:28:30;;;;;;;16.65;12.63;;;;;;;;;;487970;28;1262;-73
2024/03/09 00:28:46;;;;;;;16.75;12.45;;;;;;;;;;483056;28;1325;-74
2024/03/09 00:29:02;;;;;;;16.93;12.57;;;;;;;;;;483263;28;1038;-72
2024/03/09 00:29:18;;;;;;;17.88;13.02;;;;;;;;;;486399;28;910;-73
2024/03/09 00:29:34;;;;;;;16.58;12.77;;;;;;;;;;488813;28;949;-73
2024/03/09 00:29:50;;;;;;;16.87;12.97;;;;;;;;;;487375;28;1177;-73
2024/03/09 00:30:10;;;;;;;16.92;12.90;;;;;;;;;;486449;28;1307;-74
2024/03/09 00:30:29;;;;;;;16.55;12.73;;;;;;;;;;491772;28;1210;-74
2024/03/09 00:30:46;;;;;;;16.10;12.68;;;;;;;;;;490620;28;1318;-73
2024/03/09 00:31:02;;;;;;;17.23;13.13;;;;;;;;;;487810;28;1599;-72
2024/03/09 00:31:18;;;;;;;17.50;12.77;;;;;;;;;;487256;28;1274;-73
2024/03/09 00:31:34;;;;;;;17.37;12.87;;;;;;;;;;487372;28;1032;-73
2024/03/09 00:31:51;;;;;;;16.90;13.20;;;;;;;;;;488987;28;1326;-73
2024/03/09 00:32:08;;;;;;;17.23;13.20;;;;;;;;;;488926;28;930;-73
2024/03/09 00:32:25;;;;;;;17.33;13.30;;;;;;;;;;492423;28;1349;-73
2024/03/09 00:32:40;;;;;;;17.48;13.15;;;;;;;;;;487011;28;1959;-73
2024/03/09 00:32:59;;;;;;;18.57;13.20;;;;;;;;;;486969;28;933;-73
2024/03/09 00:33:15;;;;;;;18.23;13.15;;;;;;;;;;487634;28;1343;-73
2024/03/09 00:33:31;;;;;;;16.20;12.55;;;;;;;;;;489492;28;1141;-73
2024/03/09 00:33:49;;;;;;;15.20;12.07;;;;;;;;;;485629;28;1275;-73
2024/03/09 00:34:04;;;;;;;15.30;12.30;;;;;;;;;;483868;28;1378;-73
2024/03/09 00:34:20;;;;;;;15.50;12.25;;;;;;;;;;487375;28;1052;-74
2024/03/09 00:34:35;;;;;;;16.02;12.25;;;;;;;;;;486119;28;1114;-73
2024/03/09 00:34:51;;;;;;;15.80;11.97;;;;;;;;;;486805;28;1288;-74
2024/03/09 00:35:08;;;;;;;15.05;11.73;;;;;;;;;;485518;28;1382;-73
2024/03/09 00:35:25;;;;;;;15.55;11.88;;;;;;;;;;491199;28;1597;-73
2024/03/09 00:35:41;;;;;;;15.90;11.93;;;;;;;;;;487810;28;1247;-73
2024/03/09 00:35:56;;;;;;;17.08;12.48;;;;;;;;;;488498;28;1277;-72
2024/03/09 00:36:12;;;;;;;17.37;12.83;;;;;;;;;;489469;28;1073;-73
2024/03/09 00:36:28;;;;;;;17.55;13.02;;;;;;;;;;492657;28;1211;-73
2024/03/09 00:36:43;;;;;;;17.75;12.85;;;;;;;;;;489109;28;1092;-73
2024/03/09 00:36:58;;;;;;;16.67;12.70;;;;;;;;;;487891;28;1173;-73
2024/03/09 00:37:14;;;;;;;16.47;13.00;;;;;;;;;;487736;28;1324;-73
2024/03/09 00:37:31;;;;;;;16.48;12.68;;;;;;;;;;489663;28;1192;-73
2024/03/09 00:37:48;;;;;;;16.75;12.80;;;;;;;;;;488245;28;1324;-73
2024/03/09 00:38:04;;;;;;;16.85;12.60;;;;;;;;;;488066;28;1353;-74
2024/03/09 00:38:19;;;;;;;17.40;12.50;;;;;;;;;;489849;28;1262;-73
2024/03/09 00:38:37;;;;;;;16.45;12.65;;;;;;;;;;485311;28;1148;-73
2024/03/09 00:38:53;;;;;;;16.25;12.55;;;;;;;;;;487337;28;1286;-73
2024/03/09 00:39:11;;;;;;;16.27;12.40;;;;;;;;;;487824;28;1161;-73
2024/03/09 00:39:26;;;;;;;15.90;12.40;;;;;;;;;;488861;28;1302;-72
2024/03/09 00:39:42;;;;;;;14.57;12.00;;;;;;;;;;488094;28;1243;-73
2024/03/09 00:39:59;;;;;;;14.33;11.60;;;;;;;;;;486378;28;1431;-74
2024/03/09 00:40:14;;;;;;;14.05;11.18;;;;;;;;;;487750;28;1238;-73
2024/03/09 00:40:30;;;;;;;13.90;11.10;;;;;;;;;;492315;28;1038;-73
2024/03/09 00:40:45;;;;;;;13.85;11.30;;;;;;;;;;489441;28;976;-73
2024/03/09 00:41:01;;;;;;;14.00;11.68;;;;;;;;;;489781;28;1104;-73
2024/03/09 00:41:18;;;;;;;15.13;12.00;;;;;;;;;;488420;28;1491;-73
2024/03/09 00:41:34;;;;;;;15.25;11.80;;;;;;;;;;490400;28;1268;-73
2024/03/09 00:41:49;;;;;;;15.07;11.70;;;;;;;;;;487847;28;1306;-73
2024/03/09 00:42:08;;;;;;;15.98;12.15;;;;;;;;;;486212;28;1192;-73
2024/03/09 00:42:25;;;;;;;16.52;12.73;;;;;;;;;;488642;28;1331;-74
2024/03/09 00:42:41;;;;;;;16.58;12.85;;;;;;;;;;490278;28;1299;-73
2024/03/09 00:42:59;;;;;;;16.38;12.80;;;;;;;;;;486467;28;1127;-73
2024/03/09 00:43:14;;;;;;;16.50;12.57;;;;;;;;;;485936;28;1140;-73
2024/03/09 00:43:30;;;;;;;16.65;12.50;;;;;;;;;;486215;28;1186;-73
2024/03/09 00:43:47;;;;;;;16.27;12.37;;;;;;;;;;485719;28;1229;-73
2024/03/09 00:44:03;;;;;;;16.35;12.57;;;;;;;;;;486878;28;960;-73
2024/03/09 00:44:18;;;;;;;16.75;12.60;;;;;;;;;;487994;28;1326;-73
2024/03/09 00:44:37;;;;;;;17.07;12.83;;;;;;;;;;487665;28;1046;-73
2024/03/09 00:44:53;;;;;;;16.40;12.77;;;;;;;;;;488227;28;1791;-73
2024/03/09 00:45:09;;;;;;;16.20;12.77;;;;;;;;;;489131;28;1338;-73
2024/03/09 00:45:25;;;;;;;16.63;12.75;;;;;;;;;;493190;28;997;-73
2024/03/09 00:45:41;;;;;;;16.33;12.57;;;;;;;;;;489526;28;1456;-73
2024/03/09 00:45:56;;;;;;;15.90;12.57;;;;;;;;;;490524;28;974;-73
2024/03/09 00:46:12;;;;;;;15.77;12.52;;;;;;;;;;491033;28;961;-74
2024/03/09 00:46:28;;;;;;;16.10;12.73;;;;;;;;;;494470;28;1340;-73
2024/03/09 00:46:43;;;;;;;16.30;12.60;;;;;;;;;;490858;28;1339;-73
2024/03/09 00:47:00;;;;;;;16.88;12.95;;;;;;;;;;487513;28;1168;-73
2024/03/09 00:47:16;;;;;;;18.08;13.50;;;;;;;;;;489142;28;903;-73
2024/03/09 00:47:34;;;;;;;17.63;13.18;;;;;;;;;;488069;28;1128;-73
2024/03/09 00:47:50;;;;;;;17.38;13.13;;;;;;;;;;487797;28;1144;-74
2024/03/09 00:48:06;;;;;;;18.67;13.00;;;;;;;;;;488157;28;1200;-73
2024/03/09 00:48:22;;;;;;;17.52;12.38;;;;;;;;;;488924;28;1401;-74
2024/03/09 00:48:38;;;;;;;15.63;12.23;;;;;;;;;;488361;28;962;-73
2024/03/09 00:48:54;;;;;;;16.27;12.25;;;;;;;;;;491305;28;1115;-73
2024/03/09 00:49:10;;;;;;;17.10;12.52;;;;;;;;;;489309;28;1238;-73
2024/03/09 00:49:25;;;;;;;17.03;13.00;;;;;;;;;;492328;28;1021;-73
2024/03/09 00:49:41;;;;;;;16.58;13.23;;;;;;;;;;487608;28;1310;-72
2024/03/09 00:49:57;;;;;;;17.10;13.38;;;;;;;;;;487661;28;941;-73
2024/03/09 00:50:17;;;;;;;17.05;12.88;;;;;;;;;;489433;28;1109;-73
2024/03/09 00:50:33;;;;;;;19.60;12.52;;;;;;;;;;489600;28;1565;-73
2024/03/09 00:50:49;;;;;;;19.27;13.07;;;;;;;;;;486278;28;1270;-73
2024/03/09 00:51:07;;;;;;;16.43;12.93;;;;;;;;;;487140;28;1297;-73
2024/03/09 00:51:22;;;;;;;16.33;12.60;;;;;;;;;;489305;28;1296;-73
2024/03/09 00:51:38;;;;;;;15.90;12.37;;;;;;;;;;485409;28;1355;-73
2024/03/09 00:51:54;;;;;;;16.15;12.38;;;;;;;;;;484490;28;1211;-73
2024/03/09 00:52:12;;;;;;;16.00;12.40;;;;;;;;;;486947;28;1203;-74
2024/03/09 00:52:28;;;;;;;16.27;12.30;;;;;;;;;;490383;28;1363;-73
2024/03/09 00:52:44;;;;;;;15.97;12.17;;;;;;;;;;492814;28;1965;-73
2024/03/09 00:53:00;;;;;;;15.93;12.10;;;;;;;;;;490533;28;1439;-73
2024/03/09 00:53:15;;;;;;;16.33;12.40;;;;;;;;;;485780;28;1619;-73
2024/03/09 00:53:30;;;;;;;16.55;12.30;;;;;;;;;;488788;28;1381;-73
2024/03/09 00:53:46;;;;;;;16.53;12.30;;;;;;;;;;487268;28;1087;-73
2024/03/09 00:54:01;;;;;;;17.15;12.77;;;;;;;;;;486713;28;1341;-73
2024/03/09 00:54:18;;;;;;;16.40;12.63;;;;;;;;;;487214;28;1195;-73
2024/03/09 00:54:36;;;;;;;16.48;12.38;;;;;;;;;;489311;28;1179;-73
2024/03/09 00:54:54;;;;;;;16.52;12.40;;;;;;;;;;486144;28;1436;-73
2024/03/09 00:55:15;;;;;;;15.18;12.20;;;;;;;;;;488027;28;1284;-73
2024/03/09 00:55:31;;;;;;;15.95;12.30;;;;;;;;;;488741;28;1686;-73
2024/03/09 00:55:48;;;;;;;16.65;12.43;;;;;;;;;;487753;28;1259;-73
2024/03/09 00:56:05;;;;;;;15.95;12.27;;;;;;;;;;488535;28;1398;-73
2024/03/09 00:56:20;;;;;;;16.52;12.20;;;;;;;;;;490499;28;1365;-73
2024/03/09 00:56:37;;;;;;;16.80;12.25;;;;;;;;;;488811;28;1388;-73
2024/03/09 00:56:53;;;;;;;16.35;12.18;;;;;;;;;;486281;28;1235;-73
2024/03/09 00:57:10;;;;;;;17.23;12.30;;;;;;;;;;486319;28;1055;-73
2024/03/09 00:57:25;;;;;;;17.08;12.23;;;;;;;;;;490116;28;1313;-73
2024/03/09 00:57:50;;;;;;;16.00;12.10;;;;;;;;;;487591;28;1342;-73
2024/03/09 00:58:07;;;;;;;16.23;12.57;;;;;;;;;;488416;28;1266;-73
2024/03/09 00:58:23;;;;;;;15.70;12.32;;;;;;;;;;490629;28;1395;-73
2024/03/09 00:58:38;;;;;;;16.17;12.20;;;;;;;;;;488458;28;1328;-74
2024/03/09 00:58:56;;;;;;;15.65;11.88;;;;;;;;;;487630;28;1476;-74
2024/03/09 00:59:13;;;;;;;14.77;11.75;;;;;;;;;;488368;28;1062;-73
2024/03/09 00:59:30;;;;;;;14.00;11.35;;;;;;;;;;492740;28;1206;-73
2024/03/09 00:59:47;;;;;;;15.23;11.75;;;;;;;;;;490182;28;1630;-73
2024/03/09 01:00:10;;;;;;;16.13;12.07;;;;;;;;;;488153;28;1330;-73
2024/03/09 01:00:26;;;;;;;14.80;11.95;;;;;;;;;;490497;28;1365;-73
2024/03/09 01:00:46;;;;;;;14.82;11.80;;;;;;;;;;486337;28;1264;-73
2024/03/09 01:01:04;;;;;;;15.93;12.07;;;;;;;;;;486190;28;985;-73
2024/03/09 01:01:20;;;;;;;16.05;12.15;;;;;;;;;;489134;28;1438;-74
2024/03/09 01:01:37;;;;;;;14.75;11.50;;;;;;;;;;487990;28;1191;-73
2024/03/09 01:01:52;;;;;;;14.63;11.50;;;;;;;;;;486378;28;1257;-73
2024/03/09 01:02:08;;;;;;;15.45;11.82;;;;;;;;;;486090;28;1366;-73
2024/03/09 01:02:23;;;;;;;14.90;11.70;;;;;;;;;;490010;28;1276;-74
2024/03/09 01:02:41;;;;;;;14.35;11.60;;;;;;;;;;487232;28;1075;-73
2024/03/09 01:02:56;;;;;;;14.90;11.57;;;;;;;;;;485244;28;1385;-73
2024/03/09 01:03:13;;;;;;;14.50;11.52;;;;;;;;;;485600;28;1124;-73
2024/03/09 01:03:29;;;;;;;14.65;11.40;;;;;;;;;;489591;28;1271;-73
2024/03/09 01:03:45;;;;;;;14.70;11.30;;;;;;;;;;486726;28;964;-73
2024/03/09 01:04:01;;;;;;;14.38;11.57;;;;;;;;;;487098;28;1581;-73
2024/03/09 01:04:16;;;;;;;14.63;11.77;;;;;;;;;;487702;28;1279;-73
2024/03/09 01:04:32;;;;;;;14.57;11.55;;;;;;;;;;487794;28;1312;-73
2024/03/09 01:04:50;;;;;;;13.68;10.90;;;;;;;;;;486058;28;952;-73
2024/03/09 01:05:06;;;;;;;13.88;10.82;;;;;;;;;;486131;28;1104;-73
2024/03/09 01:05:22;;;;;;;14.20;10.68;;;;;;;;;;489261;28;1450;-73
2024/03/09 01:05:37;;;;;;;14.05;10.82;;;;;;;;;;489412;28;1280;-73
2024/03/09 01:05:53;;;;;;;14.00;11.23;;;;;;;;;;487342;28;1400;-73
2024/03/09 01:06:11;;;;;;;14.57;11.65;;;;;;;;;;488578;28;1417;-73
2024/03/09 01:06:26;;;;;;;14.82;11.57;;;;;;;;;;492767;28;1441;-73
2024/03/09 01:06:42;;;;;;;14.07;10.95;;;;;;;;;;487473;28;1245;-73
2024/03/09 01:06:58;;;;;;;13.85;11.15;;;;;;;;;;487126;28;1363;-73
2024/03/09 01:07:15;;;;;;;14.82;11.50;;;;;;;;;;487587;28;1575;-74
2024/03/09 01:07:31;;;;;;;15.38;11.80;;;;;;;;;;491856;28;976;-73
2024/03/09 01:07:46;;;;;;;14.60;11.57;;;;;;;;;;489206;28;1151;-73
2024/03/09 01:08:02;;;;;;;13.85;11.13;;;;;;;;;;489470;28;1199;-73
2024/03/09 01:08:18;;;;;;;13.95;11.27;;;;;;;;;;489442;28;1236;-73
2024/03/09 01:08:34;;;;;;;14.45;11.25;;;;;;;;;;491981;28;929;-73
2024/03/09 01:08:50;;;;;;;14.88;10.82;;;;;;;;;;490400;28;1285;-72
2024/03/09 01:09:06;;;;;;;15.20;10.85;;;;;;;;;;488698;28;1357;-73
2024/03/09 01:09:22;;;;;;;15.48;11.20;;;;;;;;;;490601;28;1093;-73
2024/03/09 01:09:38;;;;;;;15.45;11.75;;;;;;;;;;487653;28;1314;-73
2024/03/09 01:09:54;;;;;;;14.95;11.88;;;;;;;;;;488122;28;1329;-73
2024/03/09 01:10:10;;;;;;;14.68;12.00;;;;;;;;;;489628;28;1323;-73
2024/03/09 01:10:25;;;;;;;15.65;12.50;;;;;;;;;;492843;28;1400;-73
2024/03/09 01:10:41;;;;;;;16.17;12.47;;;;;;;;;;489595;28;1349;-73
2024/03/09 01:10:57;;;;;;;15.32;12.27;;;;;;;;;;488807;28;1231;-73
2024/03/09 01:11:13;;;;;;;15.80;12.85;;;;;;;;;;485723;28;1357;-73
2024/03/09 01:11:28;;;;;;;15.80;12.90;;;;;;;;;;490645;28;1367;-73
2024/03/09 01:11:45;;;;;;;14.93;12.50;;;;;;;;;;485257;28;1367;-73
2024/03/09 01:12:00;;;;;;;15.93;12.93;;;;;;;;;;484726;28;985;-73
2024/03/09 01:12:19;;;;;;;16.67;13.00;;;;;;;;;;486466;28;1199;-73
2024/03/09 01:12:35;;;;;;;15.95;12.65;;;;;;;;;;486792;28;1137;-73
2024/03/09 01:12:51;;;;;;;15.75;12.57;;;;;;;;;;484532;28;1464;-73
2024/03/09 01:13:06;;;;;;;16.98;12.80;;;;;;;;;;484636;28;1121;-73
2024/03/09 01:13:22;;;;;;;17.10;12.83;;;;;;;;;;487290;28;1267;-73
2024/03/09 01:13:38;;;;;;;16.83;13.10;;;;;;;;;;487495;28;1038;-73
2024/03/09 01:13:54;;;;;;;18.67;13.00;;;;;;;;;;488686;28;1418;-73
2024/03/09 01:14:10;;;;;;;18.25;13.15;;;;;;;;;;487804;28;1235;-73
2024/03/09 01:14:25;;;;;;;17.55;13.27;;;;;;;;;;492298;28;1313;-73
2024/03/09 01:14:41;;;;;;;16.88;13.10;;;;;;;;;;487002;28;1284;-74
2024/03/09 01:14:57;;;;;;;16.23;13.07;;;;;;;;;;486297;28;1219;-73
2024/03/09 01:15:13;;;;;;;17.15;13.25;;;;;;;;;;488012;28;1231;-73
2024/03/09 01:15:29;;;;;;;18.48;13.68;;;;;;;;;;488458;28;1228;-73
2024/03/09 01:15:44;;;;;;;17.42;13.57;;;;;;;;;;486896;28;1124;-73
2024/03/09 01:16:00;;;;;;;16.33;13.73;;;;;;;;;;486679;28;1088;-73
2024/03/09 01:16:16;;;;;;;17.43;14.03;;;;;;;;;;488657;28;1343;-73
2024/03/09 01:16:31;;;;;;;17.98;13.88;;;;;;;;;;490912;28;1021;-73
2024/03/09 01:16:47;;;;;;;17.85;13.80;;;;;;;;;;488498;28;1287;-73
2024/03/09 01:17:02;;;;;;;18.20;13.97;;;;;;;;;;487666;28;1251;-73
2024/03/09 01:17:20;;;;;;;18.42;13.65;;;;;;;;;;489846;28;1283;-73
2024/03/09 01:17:36;;;;;;;17.85;13.38;;;;;;;;;;487400;28;1274;-73
2024/03/09 01:17:52;;;;;;;18.33;13.95;;;;;;;;;;485914;28;1268;-73
2024/03/09 01:18:08;;;;;;;18.27;14.13;;;;;;;;;;486753;28;1030;-73
2024/03/09 01:18:23;;;;;;;18.58;14.15;;;;;;;;;;489160;28;1045;-73
2024/03/09 01:18:39;;;;;;;18.48;14.15;;;;;;;;;;485984;28;1354;-73
2024/03/09 01:18:54;;;;;;;18.03;13.90;;;;;;;;;;488195;28;1180;-73
2024/03/09 01:19:10;;;;;;;17.95;13.85;;;;;;;;;;486535;28;1441;-73
2024/03/09 01:19:26;;;;;;;17.70;13.73;;;;;;;;;;489905;28;993;-74
2024/03/09 01:19:41;;;;;;;17.40;14.03;;;;;;;;;;485264;28;1349;-73
2024/03/09 01:19:57;;;;;;;17.65;14.13;;;;;;;;;;484891;28;1168;-73
2024/03/09 01:20:13;;;;;;;18.40;13.95;;;;;;;;;;486952;28;1457;-73
2024/03/09 01:20:28;;;;;;;18.27;13.67;;;;;;;;;;489693;28;1196;-73
2024/03/09 01:20:44;;;;;;;16.45;13.02;;;;;;;;;;487046;28;1069;-73
2024/03/09 01:21:00;;;;;;;16.65;13.23;;;;;;;;;;488122;28;1325;-73
2024/03/09 01:21:15;;;;;;;18.80;14.03;;;;;;;;;;488661;28;1256;-73
2024/03/09 01:21:33;;;;;;;19.35;14.00;;;;;;;;;;491778;28;1199;-73
2024/03/09 01:21:48;;;;;;;18.45;14.20;;;;;;;;;;487963;28;1373;-73
2024/03/09 01:22:05;;;;;;;18.77;14.40;;;;;;;;;;487354;28;929;-73
2024/03/09 01:22:21;;;;;;;18.65;14.15;;;;;;;;;;488870;28;1049;-73
2024/03/09 01:22:37;;;;;;;17.73;13.98;;;;;;;;;;488476;28;1361;-73
2024/03/09 01:22:53;;;;;;;19.65;14.38;;;;;;;;;;488798;28;1476;-73
2024/03/09 01:23:09;;;;;;;19.70;14.60;;;;;;;;;;488084;28;1257;-73
2024/03/09 01:23:25;;;;;;;18.17;14.25;;;;;;;;;;491082;28;1362;-73
2024/03/09 01:23:40;;;;;;;18.97;14.77;;;;;;;;;;486216;28;1250;-73
2024/03/09 01:23:56;;;;;;;18.55;14.50;;;;;;;;;;486854;28;1173;-73
2024/03/09 01:24:14;;;;;;;18.23;13.87;;;;;;;;;;487514;28;1331;-73
2024/03/09 01:24:30;;;;;;;18.50;14.38;;;;;;;;;;490941;28;1205;-74
2024/03/09 01:24:46;;;;;;;18.60;14.67;;;;;;;;;;485351;28;1367;-73
2024/03/09 01:25:02;;;;;;;19.00;14.90;;;;;;;;;;486485;28;1424;-73
2024/03/09 01:25:17;;;;;;;18.83;14.50;;;;;;;;;;489160;28;1510;-73
2024/03/09 01:25:33;;;;;;;18.80;14.52;;;;;;;;;;489102;28;937;-73
2024/03/09 01:25:52;;;;;;;18.80;14.48;;;;;;;;;;488728;28;1220;-73
2024/03/09 01:26:09;;;;;;;19.10;14.48;;;;;;;;;;488129;28;1385;-73
2024/03/09 01:26:26;;;;;;;18.70;14.60;;;;;;;;;;492596;28;1460;-73
2024/03/09 01:26:42;;;;;;;19.80;14.75;;;;;;;;;;486145;28;1290;-73
2024/03/09 01:26:58;;;;;;;20.42;15.10;;;;;;;;;;486889;28;1325;-73
2024/03/09 01:27:13;;;;;;;19.63;14.73;;;;;;;;;;487497;28;1173;-72
2024/03/09 01:27:29;;;;;;;20.02;14.57;;;;;;;;;;492360;28;1060;-73
2024/03/09 01:27:44;;;;;;;19.90;14.50;;;;;;;;;;488194;28;1060;-73
2024/03/09 01:28:02;;;;;;;19.73;14.55;;;;;;;;;;488853;28;1049;-73
2024/03/09 01:28:17;;;;;;;20.08;14.80;;;;;;;;;;489485;28;1476;-73
2024/03/09 01:28:33;;;;;;;19.50;14.80;;;;;;;;;;490704;28;1216;-73
2024/03/09 01:28:48;;;;;;;18.80;14.48;;;;;;;;;;487016;28;1318;-73
2024/03/09 01:29:04;;;;;;;19.17;14.47;;;;;;;;;;486343;28;1010;-74
2024/03/09 01:29:22;;;;;;;19.35;14.43;;;;;;;;;;487115;28;1164;-74
2024/03/09 01:29:43;;;;;;;20.50;14.95;;;;;;;;;;484867;28;1065;-73
2024/03/09 01:29:59;;;;;;;21.48;14.98;;;;;;;;;;484988;28;1341;-73
2024/03/09 01:30:15;;;;;;;19.33;14.60;;;;;;;;;;485094;28;957;-72
2024/03/09 01:30:30;;;;;;;19.20;14.70;;;;;;;;;;487794;28;1240;-74
2024/03/09 01:30:46;;;;;;;19.10;14.83;;;;;;;;;;485852;28;1196;-73
2024/03/09 01:31:05;;;;;;;19.08;14.50;;;;;;;;;;484202;28;1179;-73
2024/03/09 01:31:27;;;;;;;19.67;14.60;;;;;;;;;;488467;28;1457;-73
2024/03/09 01:31:43;;;;;;;19.55;14.80;;;;;;;;;;485582;28;1096;-73
2024/03/09 01:32:04;;;;;;;18.92;14.88;;;;;;;;;;485508;28;1224;-73
2024/03/09 01:32:22;;;;;;;18.45;14.52;;;;;;;;;;487063;28;1120;-74
2024/03/09 01:32:43;;;;;;;18.83;14.68;;;;;;;;;;486091;28;1941;-73
2024/03/09 01:32:58;;;;;;;19.75;14.68;;;;;;;;;;488038;28;937;-73
2024/03/09 01:33:14;;;;;;;20.02;14.80;;;;;;;;;;489649;28;902;-73
2024/03/09 01:33:31;;;;;;;19.00;14.50;;;;;;;;;;491972;28;1182;-73
2024/03/09 01:33:47;;;;;;;17.95;13.70;;;;;;;;;;487231;28;1294;-73
2024/03/09 01:34:05;;;;;;;18.92;13.85;;;;;;;;;;488598;28;1241;-73
2024/03/09 01:34:20;;;;;;;20.15;14.77;;;;;;;;;;490966;28;1477;-73
2024/03/09 01:34:36;;;;;;;19.13;14.25;;;;;;;;;;489840;28;1230;-73
2024/03/09 01:34:51;;;;;;;18.30;13.83;;;;;;;;;;489485;28;1139;-73
2024/03/09 01:35:08;;;;;;;18.02;13.75;;;;;;;;;;487086;28;1211;-73
2024/03/09 01:35:24;;;;;;;18.50;13.55;;;;;;;;;;487104;28;1407;-73
2024/03/09 01:35:40;;;;;;;18.47;13.47;;;;;;;;;;487409;28;1285;-73
2024/03/09 01:35:55;;;;;;;17.80;13.75;;;;;;;;;;487474;28;1054;-73
2024/03/09 01:36:11;;;;;;;18.38;14.05;;;;;;;;;;487760;28;1345;-73
2024/03/09 01:36:27;;;;;;;18.70;13.97;;;;;;;;;;492859;28;1044;-74
2024/03/09 01:36:45;;;;;;;17.95;13.73;;;;;;;;;;487417;28;1086;-73
2024/03/09 01:37:01;;;;;;;18.77;13.90;;;;;;;;;;487149;28;1184;-73
2024/03/09 01:37:22;;;;;;;18.42;13.65;;;;;;;;;;487666;28;1045;-73
2024/03/09 01:37:37;;;;;;;16.98;13.40;;;;;;;;;;489601;28;1024;-73
2024/03/09 01:37:53;;;;;;;17.98;13.75;;;;;;;;;;490027;28;1232;-73
2024/03/09 01:38:09;;;;;;;18.63;14.00;;;;;;;;;;490207;28;1067;-73
2024/03/09 01:38:25;;;;;;;18.13;13.35;;;;;;;;;;492921;28;1500;-74
2024/03/09 01:38:40;;;;;;;17.27;13.10;;;;;;;;;;488270;28;1304;-73